KPPA/PPA METAR and TAF weather

Enter ICAO airport designator
Station Type Date Time Source
KPPA METAR 2023/02/06 19:15 UTC NOAA

KPPA 061915Z AUTO 29019G27KT 10SM CLR 21/M06 A2980 RMK AO2 T02071063


Station Type Date Time Source
KPPA Decoded METAR 2023/02/06 19:15 UTC NOAA

Pampa, Perry Lefors Field Airport, TX, United States (KPPA) 35-36-46N 100-59-46W
Feb 06, 2023 - 02:15 PM EST / 2023.02.06 1915 UTC
Wind: from the WNW (290 degrees) at 22 MPH (19 KT) gusting to 31 MPH (27 KT):0
Visibility: 10 mile(s):0
Sky conditions: clear
Temperature: 69.3 F (20.7 C)
Dew Point: 20.7 F (-6.3 C)
Relative Humidity: 15%
Pressure (altimeter): 29.8 in. Hg (1009 hPa)
ob: KPPA 061915Z AUTO 29019G27KT 10SM CLR 21/M06 A2980 RMK AO2 T02071063
cycle: 19

Station Type Date Time Source
KPPA TAF UTC NOAA

Error!

Example: see airport list